(°C)
18°
18°
18°
19°
21°
23°
25°
(°C)
18°
18°
19°
20°
22°
24°
26°
ЮИ
ЮИ
ЮИ
ЮИ
ИЮИ
ИЮИ
ЮИ
(km/h)
9-14
8-14
7-13
7-18
7-18
7-18
8-18
(mm)
0
0
0
0
0
0
0
(%)
0
0
7
0
1
9
1

Издигане на слънцето

/ -12°
sun-icon
UV 4
05:12
21:31
Намаляващ полумесец (313°)
00:32
19:18

METAR за 57.92°С 56.02°И (USPP)

Час Условия Температура/
Точка на оросяване
Вятър Видимост Времето Облаци Налягане Промяна Сурови
VFR 19°C / 17°C 280º 6kt >10km - Clouds and Visibility OK 1011 No Significant change. Runway 21: Clear and dry, 51-100% contamination with <1mm, friction coefficient 0.60. USPP 032130Z 28003MPS CAVOK 19/17 Q1011 R21/090060 NOSIG RMK QFE747
VFR 21°C / 17°C 230º 8kt >10km - Clouds and Visibility OK 1011 No Significant change. Runway 21: Clear and dry, 51-100% contamination with <1mm, friction coefficient 0.60. USPP 032100Z 23004MPS CAVOK 21/17 Q1011 R21/090060 NOSIG RMK QFE747
VFR 21°C / 17°C 230º 4kt >10km - Few Clouds 5300ft 1011 No Significant change. Runway 21: Clear and dry, 51-100% contamination with <1mm, friction coefficient 0.60. USPP 032030Z 23002MPS 9999 FEW053CB 21/17 Q1011 R21/090060 NOSIG RMK QFE747
VFR 21°C / 18°C 90º 8kt Gust 19kt >10km - Few Clouds 5000ft 1011 No Significant change. Runway 21: Clear and dry, 51-100% contamination with <1mm, friction coefficient 0.60. USPP 032000Z 09004G10MPS 9999 FEW050CB 21/18 Q1011 R21/090060 NOSIG RMK QFE747
VFR 21°C / 18°C 130º 6kt >10km - Clouds and Visibility OK 1010 No Significant change. Runway 21: Clear and dry, 51-100% contamination with <1mm, friction coefficient 0.60. USPP 031930Z 13003MPS CAVOK 21/18 Q1010 R21/090060 NOSIG RMK QFE747
VFR 22°C / 18°C 120º 8kt >10km - Clouds and Visibility OK 1010 No Significant change. Runway 21: Clear and dry, 51-100% contamination with <1mm, friction coefficient 0.60. USPP 031900Z 12004MPS CAVOK 22/18 Q1010 R21/090060 NOSIG RMK QFE747
VFR 26°C / 18°C 120º 8kt >10km - Clouds and Visibility OK 1010 No Significant change. Runway 21: Clear and dry, 51-100% contamination with <1mm, friction coefficient 0.60. USPP 031830Z 12004MPS CAVOK 26/18 Q1010 R21/090060 NOSIG RMK QFE747
VFR 27°C / 18°C 120º 8kt >10km - Clouds and Visibility OK 1010 No Significant change. Runway 21: Clear and dry, 51-100% contamination with <1mm, friction coefficient 0.60. USPP 031800Z 12004MPS CAVOK 27/18 Q1010 R21/090060 NOSIG RMK QFE747
VFR 27°C / 18°C 130º 8kt >10km - Clouds and Visibility OK 1010 No Significant change. Runway 21: Clear and dry, 51-100% contamination with <1mm, friction coefficient 0.60. USPP 031730Z 13004MPS CAVOK 27/18 Q1010 R21/090060 NOSIG RMK QFE747
VFR 27°C / 19°C 120º 8kt >10km - Clouds and Visibility OK 1010 No Significant change. Runway 21: Clear and dry, 51-100% contamination with <1mm, friction coefficient 0.60. USPP 031700Z 12004MPS CAVOK 27/19 Q1010 R21/090060 NOSIG RMK QFE747
VFR 27°C / 20°C 130º 6kt >10km - Clouds and Visibility OK 1010 No Significant change. Runway 21: Clear and dry, 51-100% contamination with <1mm, friction coefficient 0.60. USPP 031630Z 13003MPS CAVOK 27/20 Q1010 R21/090060 NOSIG RMK QFE747
VFR 26°C / 20°C 120º 8kt >10km - Clouds and Visibility OK 1010 No Significant change. Runway 21: Clear and dry, 51-100% contamination with <1mm, friction coefficient 0.60. USPP 031600Z 12004MPS CAVOK 26/20 Q1010 R21/090060 NOSIG RMK QFE747
VFR 29°C / 19°C 130º variable 110º to 170º 6kt >10km - Clouds and Visibility OK 1010 No Significant change. Runway 21: Clear and dry, 51-100% contamination with <1mm, friction coefficient 0.60. USPP 031530Z 13003MPS 110V170 CAVOK 29/19 Q1010 R21/090060 NOSIG RMK QFE747
VFR 29°C / 20°C 130º 4kt >10km - Clouds and Visibility OK 1010 No Significant change. Runway 21: Clear and dry, 51-100% contamination with <1mm, friction coefficient 0.60. USPP 031500Z 13002MPS CAVOK 29/20 Q1010 R21/090060 NOSIG RMK QFE747
VFR 30°C / 20°C 110º 4kt >10km - Clouds and Visibility OK 1010 No Significant change. Runway 21: Clear and dry, 51-100% contamination with <1mm, friction coefficient 0.60. USPP 031430Z 11002MPS CAVOK 30/20 Q1010 R21/090060 NOSIG RMK QFE747
VFR 30°C / 21°C 110º 4kt >10km - Clouds and Visibility OK 1010 No Significant change. Runway 21: Clear and dry, 51-100% contamination with <1mm, friction coefficient 0.60. USPP 031400Z 11002MPS CAVOK 30/21 Q1010 R21/090060 NOSIG RMK QFE747
VFR 30°C / 20°C 80º 4kt >10km - Clouds and Visibility OK 1010 No Significant change. Runway 21: Clear and dry, 51-100% contamination with <1mm, friction coefficient 0.60. USPP 031330Z 08002MPS CAVOK 30/20 Q1010 R21/090060 NOSIG RMK QFE747
VFR 31°C / 19°C variable 2kt >10km - Clouds and Visibility OK 1011 No Significant change. Runway 21: Clear and dry, 51-100% contamination with <1mm, friction coefficient 0.60. USPP 031300Z VRB01MPS CAVOK 31/19 Q1011 R21/090060 NOSIG RMK QFE747
VFR 31°C / 19°C variable 0kt >10km - Clouds and Visibility OK 1011 No Significant change. Runway 21: Clear and dry, 51-100% contamination with <1mm, friction coefficient 0.60. USPP 031230Z 00000MPS CAVOK 31/19 Q1011 R21/090060 NOSIG RMK QFE747
VFR 31°C / 19°C 200º variable 140º to 260º 4kt >10km - Clouds and Visibility OK 1011 No Significant change. Runway 21: Clear and dry, 51-100% contamination with <1mm, friction coefficient 0.60. USPP 031200Z 20002MPS 140V260 CAVOK 31/19 Q1011 R21/090060 NOSIG RMK QFE747
VFR 30°C / 19°C 220º variable 180º to 260º 4kt >10km - Clouds and Visibility OK 1011 No Significant change. Runway 21: Clear and dry, 51-100% contamination with <1mm, friction coefficient 0.60. USPP 031130Z 22002MPS 180V260 CAVOK 30/19 Q1011 R21/090060 NOSIG RMK QFE748
VFR 30°C / 19°C 230º variable 160º to 270º 4kt >10km - Clouds and Visibility OK 1011 No Significant change. Runway 21: Clear and dry, 51-100% contamination with <1mm, friction coefficient 0.60. USPP 031100Z 23002MPS 160V270 CAVOK 30/19 Q1011 R21/090060 NOSIG RMK QFE748
VFR 29°C / 20°C variable 2kt >10km - Clouds and Visibility OK 1011 No Significant change. Runway 21: Clear and dry, 51-100% contamination with <1mm, friction coefficient 0.60. USPP 031030Z VRB01MPS CAVOK 29/20 Q1011 R21/090060 NOSIG RMK QFE748
VFR 29°C / 20°C 180º variable 100º to 220º 4kt >10km - Clouds and Visibility OK 1011 No Significant change. Runway 21: Clear and dry, 51-100% contamination with <1mm, friction coefficient 0.60. USPP 031000Z 18002MPS 100V220 CAVOK 29/20 Q1011 R21/090060 NOSIG RMK QFE748

VFR

19°C / 17°C

[Още]
Вятър 280º 6kt
Видимост >10km
Времето -
Облаци Clouds and Visibility OK
Налягане 1011
Промяна No Significant change. Runway 21: Clear and dry, 51-100% contamination with <1mm, friction coefficient 0.60.
Сурови USPP 032130Z 28003MPS CAVOK 19/17 Q1011 R21/090060 NOSIG RMK QFE747

VFR

21°C / 17°C

[Още]
Вятър 230º 8kt
Видимост >10km
Времето -
Облаци Clouds and Visibility OK
Налягане 1011
Промяна No Significant change. Runway 21: Clear and dry, 51-100% contamination with <1mm, friction coefficient 0.60.
Сурови USPP 032100Z 23004MPS CAVOK 21/17 Q1011 R21/090060 NOSIG RMK QFE747

VFR

21°C / 17°C

[Още]
Вятър 230º 4kt
Видимост >10km
Времето -
Облаци Few Clouds 5300ft
Налягане 1011
Промяна No Significant change. Runway 21: Clear and dry, 51-100% contamination with <1mm, friction coefficient 0.60.
Сурови USPP 032030Z 23002MPS 9999 FEW053CB 21/17 Q1011 R21/090060 NOSIG RMK QFE747

VFR

21°C / 18°C

[Още]
Вятър 90º 8kt Gust 19kt
Видимост >10km
Времето -
Облаци Few Clouds 5000ft
Налягане 1011
Промяна No Significant change. Runway 21: Clear and dry, 51-100% contamination with <1mm, friction coefficient 0.60.
Сурови USPP 032000Z 09004G10MPS 9999 FEW050CB 21/18 Q1011 R21/090060 NOSIG RMK QFE747

VFR

21°C / 18°C

[Още]
Вятър 130º 6kt
Видимост >10km
Времето -
Облаци Clouds and Visibility OK
Налягане 1010
Промяна No Significant change. Runway 21: Clear and dry, 51-100% contamination with <1mm, friction coefficient 0.60.
Сурови USPP 031930Z 13003MPS CAVOK 21/18 Q1010 R21/090060 NOSIG RMK QFE747

VFR

22°C / 18°C

[Още]
Вятър 120º 8kt
Видимост >10km
Времето -
Облаци Clouds and Visibility OK
Налягане 1010
Промяна No Significant change. Runway 21: Clear and dry, 51-100% contamination with <1mm, friction coefficient 0.60.
Сурови USPP 031900Z 12004MPS CAVOK 22/18 Q1010 R21/090060 NOSIG RMK QFE747

VFR

26°C / 18°C

[Още]
Вятър 120º 8kt
Видимост >10km
Времето -
Облаци Clouds and Visibility OK
Налягане 1010
Промяна No Significant change. Runway 21: Clear and dry, 51-100% contamination with <1mm, friction coefficient 0.60.
Сурови USPP 031830Z 12004MPS CAVOK 26/18 Q1010 R21/090060 NOSIG RMK QFE747

VFR

27°C / 18°C

[Още]
Вятър 120º 8kt
Видимост >10km
Времето -
Облаци Clouds and Visibility OK
Налягане 1010
Промяна No Significant change. Runway 21: Clear and dry, 51-100% contamination with <1mm, friction coefficient 0.60.
Сурови USPP 031800Z 12004MPS CAVOK 27/18 Q1010 R21/090060 NOSIG RMK QFE747

VFR

27°C / 18°C

[Още]
Вятър 130º 8kt
Видимост >10km
Времето -
Облаци Clouds and Visibility OK
Налягане 1010
Промяна No Significant change. Runway 21: Clear and dry, 51-100% contamination with <1mm, friction coefficient 0.60.
Сурови USPP 031730Z 13004MPS CAVOK 27/18 Q1010 R21/090060 NOSIG RMK QFE747

VFR

27°C / 19°C

[Още]
Вятър 120º 8kt
Видимост >10km
Времето -
Облаци Clouds and Visibility OK
Налягане 1010
Промяна No Significant change. Runway 21: Clear and dry, 51-100% contamination with <1mm, friction coefficient 0.60.
Сурови USPP 031700Z 12004MPS CAVOK 27/19 Q1010 R21/090060 NOSIG RMK QFE747

VFR

27°C / 20°C

[Още]
Вятър 130º 6kt
Видимост >10km
Времето -
Облаци Clouds and Visibility OK
Налягане 1010
Промяна No Significant change. Runway 21: Clear and dry, 51-100% contamination with <1mm, friction coefficient 0.60.
Сурови USPP 031630Z 13003MPS CAVOK 27/20 Q1010 R21/090060 NOSIG RMK QFE747

VFR

26°C / 20°C

[Още]
Вятър 120º 8kt
Видимост >10km
Времето -
Облаци Clouds and Visibility OK
Налягане 1010
Промяна No Significant change. Runway 21: Clear and dry, 51-100% contamination with <1mm, friction coefficient 0.60.
Сурови USPP 031600Z 12004MPS CAVOK 26/20 Q1010 R21/090060 NOSIG RMK QFE747

VFR

29°C / 19°C

[Още]
Вятър 130º variable 110º to 170º 6kt
Видимост >10km
Времето -
Облаци Clouds and Visibility OK
Налягане 1010
Промяна No Significant change. Runway 21: Clear and dry, 51-100% contamination with <1mm, friction coefficient 0.60.
Сурови USPP 031530Z 13003MPS 110V170 CAVOK 29/19 Q1010 R21/090060 NOSIG RMK QFE747

VFR

29°C / 20°C

[Още]
Вятър 130º 4kt
Видимост >10km
Времето -
Облаци Clouds and Visibility OK
Налягане 1010
Промяна No Significant change. Runway 21: Clear and dry, 51-100% contamination with <1mm, friction coefficient 0.60.
Сурови USPP 031500Z 13002MPS CAVOK 29/20 Q1010 R21/090060 NOSIG RMK QFE747

VFR

30°C / 20°C

[Още]
Вятър 110º 4kt
Видимост >10km
Времето -
Облаци Clouds and Visibility OK
Налягане 1010
Промяна No Significant change. Runway 21: Clear and dry, 51-100% contamination with <1mm, friction coefficient 0.60.
Сурови USPP 031430Z 11002MPS CAVOK 30/20 Q1010 R21/090060 NOSIG RMK QFE747

VFR

30°C / 21°C

[Още]
Вятър 110º 4kt
Видимост >10km
Времето -
Облаци Clouds and Visibility OK
Налягане 1010
Промяна No Significant change. Runway 21: Clear and dry, 51-100% contamination with <1mm, friction coefficient 0.60.
Сурови USPP 031400Z 11002MPS CAVOK 30/21 Q1010 R21/090060 NOSIG RMK QFE747

VFR

30°C / 20°C

[Още]
Вятър 80º 4kt
Видимост >10km
Времето -
Облаци Clouds and Visibility OK
Налягане 1010
Промяна No Significant change. Runway 21: Clear and dry, 51-100% contamination with <1mm, friction coefficient 0.60.
Сурови USPP 031330Z 08002MPS CAVOK 30/20 Q1010 R21/090060 NOSIG RMK QFE747

VFR

31°C / 19°C

[Още]
Вятър variable 2kt
Видимост >10km
Времето -
Облаци Clouds and Visibility OK
Налягане 1011
Промяна No Significant change. Runway 21: Clear and dry, 51-100% contamination with <1mm, friction coefficient 0.60.
Сурови USPP 031300Z VRB01MPS CAVOK 31/19 Q1011 R21/090060 NOSIG RMK QFE747

VFR

31°C / 19°C

[Още]
Вятър variable 0kt
Видимост >10km
Времето -
Облаци Clouds and Visibility OK
Налягане 1011
Промяна No Significant change. Runway 21: Clear and dry, 51-100% contamination with <1mm, friction coefficient 0.60.
Сурови USPP 031230Z 00000MPS CAVOK 31/19 Q1011 R21/090060 NOSIG RMK QFE747

VFR

31°C / 19°C

[Още]
Вятър 200º variable 140º to 260º 4kt
Видимост >10km
Времето -
Облаци Clouds and Visibility OK
Налягане 1011
Промяна No Significant change. Runway 21: Clear and dry, 51-100% contamination with <1mm, friction coefficient 0.60.
Сурови USPP 031200Z 20002MPS 140V260 CAVOK 31/19 Q1011 R21/090060 NOSIG RMK QFE747

VFR

30°C / 19°C

[Още]
Вятър 220º variable 180º to 260º 4kt
Видимост >10km
Времето -
Облаци Clouds and Visibility OK
Налягане 1011
Промяна No Significant change. Runway 21: Clear and dry, 51-100% contamination with <1mm, friction coefficient 0.60.
Сурови USPP 031130Z 22002MPS 180V260 CAVOK 30/19 Q1011 R21/090060 NOSIG RMK QFE748

VFR

30°C / 19°C

[Още]
Вятър 230º variable 160º to 270º 4kt
Видимост >10km
Времето -
Облаци Clouds and Visibility OK
Налягане 1011
Промяна No Significant change. Runway 21: Clear and dry, 51-100% contamination with <1mm, friction coefficient 0.60.
Сурови USPP 031100Z 23002MPS 160V270 CAVOK 30/19 Q1011 R21/090060 NOSIG RMK QFE748

VFR

29°C / 20°C

[Още]
Вятър variable 2kt
Видимост >10km
Времето -
Облаци Clouds and Visibility OK
Налягане 1011
Промяна No Significant change. Runway 21: Clear and dry, 51-100% contamination with <1mm, friction coefficient 0.60.
Сурови USPP 031030Z VRB01MPS CAVOK 29/20 Q1011 R21/090060 NOSIG RMK QFE748

VFR

29°C / 20°C

[Още]
Вятър 180º variable 100º to 220º 4kt
Видимост >10km
Времето -
Облаци Clouds and Visibility OK
Налягане 1011
Промяна No Significant change. Runway 21: Clear and dry, 51-100% contamination with <1mm, friction coefficient 0.60.
Сурови USPP 031000Z 18002MPS 100V220 CAVOK 29/20 Q1011 R21/090060 NOSIG RMK QFE748

TAF за 57.92°С 56.02°И (USPP)

From till


From till Wind 140º 6kt. Gust 23kt. Visibility 6000m. Scattered Clouds 4000ft.
Temporarly from till Light Thunderstorm Rain . Broken Clouds 1600ft.
From till Wind 230º 6kt. Gust 27kt. Visibility 10km or more. Broken Clouds 2000ft.
Temporarly from till Light Thunderstorm Rain .

Сурови: TAF USPP 031955Z 0321/0421 14003G12MPS 6000 SCT040 TEMPO 0321/0403 -TSRA BKN016CB FM040600 23003G14MPS 9999 BKN020CB TEMPO 0409/0416 -TSRA

Актуални сателитни и дъждовни снимки за 57.92°С 56.02°И

Маркерът за локация е поставен върху 57.92°С 56.02°И. [Още]

Сателитното изображение в реално време съчетава видимата светлина през деня с инфрачервеното лъчение през нощта. През нощта изображението не е тъмно, тъй като инфрачервеното лъчение може да открива температурни разлики. За съжаление ниските облаци и мъглата са трудни за разграничаване от температурите на земята и затова могат да бъдат почти невидими през нощта. Сателитните изображения на Meteosat за Европа се актуализират в реално време на всеки 5 минути. Изображенията GOES-16/GOES-17 (Северна и Южна Америка) и Химавари (Азия) се актуализират на всеки 10 минути.

Всички права запазени 2021 EUMETSAT / meteoblue. / Всички права запазени 2021 meteoblue

Радар и валежи в момента за 57.92°С 56.02°И

Капчица
Лек
Умерен
Тежък
Много тежък
Аве

Маркерът за локация обозначава 57.92°С 56.02°И. Анимацията показва Радара за валежи за последния час, както и прогноза за 1h. Възможно е незначителните превалявания да не бъдат засечени от радара. Интензивността на валежите е представена в цветна скала от светлосиньо до тъмнолилаво.